Time;durP1;ratioP1;P1;durP2;ratioP2;P2;SDS_P1;SDS_P2;PMS_P1;PMS_P2;Temp;Humidity;BMP_temperature;BMP_pressure;BME280_temperature;BME280_humidity;BME280_pressure;Samples;Min_cycle;Max_cycle;Signal;HPM_P1;HPM_P2
2023/05/31 00:00:03;;;;;;;5.30;4.80;;;;;;;;;;4985669;28;20030;-45
2023/05/31 00:02:29;;;;;;;6.43;4.78;;;;;;;;;;4986091;28;20038;-43
2023/05/31 00:04:54;;;;;;;5.88;4.72;;;;;;;;;;4985948;28;20022;-46
2023/05/31 00:07:20;;;;;;;4.63;4.20;;;;;;;;;;4980645;28;22261;-43
2023/05/31 00:09:45;;;;;;;6.57;3.90;;;;;;;;;;4983336;28;20084;-45
2023/05/31 00:12:10;;;;;;;4.93;4.43;;;;;;;;;;4985529;28;20039;-46
2023/05/31 00:14:36;;;;;;;5.65;4.75;;;;;;;;;;4982829;28;20034;-45
2023/05/31 00:17:01;;;;;;;7.90;4.32;;;;;;;;;;4983028;28;20050;-44
2023/05/31 00:19:26;;;;;;;5.53;4.35;;;;;;;;;;4984685;28;20026;-43
2023/05/31 00:21:52;;;;;;;7.13;4.28;;;;;;;;;;4984850;28;20506;-43
2023/05/31 00:24:17;;;;;;;5.50;4.03;;;;;;;;;;4980646;28;20085;-44
2023/05/31 00:26:43;;;;;;;6.47;4.57;;;;;;;;;;4983742;28;20055;-43
2023/05/31 00:29:08;;;;;;;5.00;4.55;;;;;;;;;;4986153;28;20124;-46
2023/05/31 00:31:34;;;;;;;9.40;4.60;;;;;;;;;;4983002;28;20026;-49
2023/05/31 00:33:59;;;;;;;4.80;4.40;;;;;;;;;;4982614;28;20026;-47
2023/05/31 00:36:24;;;;;;;5.72;3.90;;;;;;;;;;4982237;28;20037;-45
2023/05/31 00:38:50;;;;;;;6.97;4.43;;;;;;;;;;4982719;28;20096;-44
2023/05/31 00:41:16;;;;;;;5.97;4.57;;;;;;;;;;4984884;28;20423;-46
2023/05/31 00:43:42;;;;;;;5.32;4.40;;;;;;;;;;4985898;28;20042;-47
2023/05/31 00:46:11;;;;;;;4.70;4.25;;;;;;;;;;4979364;28;20054;-45
2023/05/31 00:48:38;;;;;;;5.90;4.47;;;;;;;;;;4979864;28;20038;-42
2023/05/31 00:51:05;;;;;;;4.80;4.30;;;;;;;;;;4982574;28;20062;-44
2023/05/31 00:53:31;;;;;;;4.32;3.92;;;;;;;;;;4985583;28;20478;-43
2023/05/31 00:55:59;;;;;;;5.45;4.28;;;;;;;;;;4981246;28;20121;-49
2023/05/31 00:58:26;;;;;;;6.13;4.40;;;;;;;;;;4981819;28;20038;-44
2023/05/31 01:00:52;;;;;;;5.65;4.90;;;;;;;;;;4983300;28;20034;-46
2023/05/31 01:03:18;;;;;;;4.57;4.18;;;;;;;;;;4982751;28;20108;-47
2023/05/31 01:05:45;;;;;;;4.53;4.18;;;;;;;;;;4980617;28;20050;-43
2023/05/31 01:08:10;;;;;;;6.63;4.88;;;;;;;;;;4984388;28;20117;-49
2023/05/31 01:10:36;;;;;;;4.57;4.13;;;;;;;;;;4983116;28;20109;-44
2023/05/31 01:13:18;;;;;;;8.13;4.57;;;;;;;;;;4982618;28;20109;-49
2023/05/31 01:15:48;;;;;;;4.93;4.25;;;;;;;;;;4982469;28;20070;-43
2023/05/31 01:18:19;;;;;;;8.02;4.60;;;;;;;;;;4983920;28;20405;-45
2023/05/31 01:20:49;;;;;;;7.75;4.70;;;;;;;;;;4980954;28;20410;-46
2023/05/31 01:23:23;;;;;;;5.97;4.65;;;;;;;;;;4982117;28;20084;-47
2023/05/31 01:26:12;;;;;;;5.60;5.05;;;;;;;;;;4983749;28;20513;-43
2023/05/31 01:28:41;;;;;;;7.45;4.88;;;;;;;;;;4985285;28;20502;-47
2023/05/31 01:31:08;;;;;;;6.65;4.60;;;;;;;;;;4981806;28;20570;-46
2023/05/31 01:33:35;;;;;;;4.78;4.38;;;;;;;;;;4988577;28;20391;-43
2023/05/31 01:36:00;;;;;;;7.25;4.90;;;;;;;;;;4986247;28;20041;-48
2023/05/31 01:38:26;;;;;;;4.85;4.40;;;;;;;;;;4988305;28;20030;-46
2023/05/31 01:40:54;;;;;;;5.93;4.97;;;;;;;;;;4993378;28;20094;-44
2023/05/31 01:43:20;;;;;;;4.90;4.50;;;;;;;;;;4984693;28;20038;-46
2023/05/31 01:45:46;;;;;;;7.18;4.82;;;;;;;;;;4986713;28;20612;-44
2023/05/31 01:48:13;;;;;;;5.45;4.70;;;;;;;;;;4987830;28;20130;-49
2023/05/31 01:50:39;;;;;;;4.65;3.92;;;;;;;;;;4989963;28;20033;-43
2023/05/31 01:53:05;;;;;;;5.10;4.60;;;;;;;;;;4986519;28;21004;-46
2023/05/31 01:55:31;;;;;;;7.47;4.25;;;;;;;;;;4990885;28;20402;-50
2023/05/31 01:57:58;;;;;;;5.25;4.25;;;;;;;;;;4989737;28;20027;-42
2023/05/31 02:00:24;;;;;;;7.38;4.50;;;;;;;;;;4985775;28;20038;-46
2023/05/31 02:02:51;;;;;;;5.78;4.43;;;;;;;;;;4986044;28;20026;-49
2023/05/31 02:05:16;;;;;;;5.47;4.43;;;;;;;;;;4988483;28;20023;-43
2023/05/31 02:07:44;;;;;;;8.32;4.70;;;;;;;;;;4988268;28;20042;-42
2023/05/31 02:10:10;;;;;;;4.65;4.25;;;;;;;;;;4987453;28;20019;-44
2023/05/31 02:12:35;;;;;;;4.55;4.15;;;;;;;;;;4990006;28;20103;-46
2023/05/31 02:15:02;;;;;;;6.65;4.95;;;;;;;;;;4988829;28;20487;-43
2023/05/31 02:17:28;;;;;;;5.53;4.35;;;;;;;;;;4983521;28;20412;-47
2023/05/31 02:19:54;;;;;;;4.68;4.35;;;;;;;;;;4989582;28;20026;-44
2023/05/31 02:22:20;;;;;;;7.57;4.88;;;;;;;;;;4989549;28;20101;-45
2023/05/31 02:24:46;;;;;;;4.85;4.35;;;;;;;;;;4988311;28;20030;-46
2023/05/31 02:27:12;;;;;;;9.73;5.10;;;;;;;;;;4989296;28;20053;-45
2023/05/31 02:29:38;;;;;;;8.88;4.30;;;;;;;;;;4988189;28;20027;-43
2023/05/31 02:32:04;;;;;;;5.45;4.50;;;;;;;;;;4987408;28;20046;-43
2023/05/31 02:34:30;;;;;;;5.43;4.65;;;;;;;;;;4986322;28;20034;-44
2023/05/31 02:36:55;;;;;;;5.30;4.80;;;;;;;;;;4988187;28;20041;-47
2023/05/31 02:39:21;;;;;;;6.35;4.50;;;;;;;;;;4988335;28;20427;-44
2023/05/31 02:41:46;;;;;;;7.40;4.18;;;;;;;;;;4987532;28;20035;-46
2023/05/31 02:44:13;;;;;;;6.30;4.13;;;;;;;;;;4985857;28;20032;-44
2023/05/31 02:46:39;;;;;;;4.30;3.90;;;;;;;;;;4983608;28;20034;-48
2023/05/31 02:49:06;;;;;;;5.60;4.40;;;;;;;;;;4986410;28;20030;-46
2023/05/31 02:51:31;;;;;;;7.25;4.80;;;;;;;;;;4981416;28;20058;-48
2023/05/31 02:53:57;;;;;;;5.88;3.97;;;;;;;;;;4985014;28;20066;-46
2023/05/31 02:56:23;;;;;;;4.43;3.97;;;;;;;;;;4985176;28;20046;-43
2023/05/31 02:58:48;;;;;;;5.70;4.68;;;;;;;;;;4987449;28;20034;-45
2023/05/31 03:01:14;;;;;;;5.07;4.20;;;;;;;;;;4985191;28;20491;-48
2023/05/31 03:03:39;;;;;;;4.35;3.95;;;;;;;;;;4991079;28;20031;-48
2023/05/31 03:06:05;;;;;;;6.63;3.75;;;;;;;;;;4983154;28;20070;-50
2023/05/31 03:08:30;;;;;;;7.07;4.20;;;;;;;;;;4985225;28;21817;-43
2023/05/31 03:10:56;;;;;;;6.95;4.15;;;;;;;;;;4986709;28;20042;-44
2023/05/31 03:13:21;;;;;;;5.15;4.22;;;;;;;;;;4985847;28;20030;-47
2023/05/31 03:15:47;;;;;;;4.43;3.92;;;;;;;;;;4984164;28;20042;-45
2023/05/31 03:18:12;;;;;;;6.78;4.30;;;;;;;;;;4986182;28;20126;-47
2023/05/31 03:20:38;;;;;;;7.90;4.13;;;;;;;;;;4985936;28;20033;-46
2023/05/31 03:23:03;;;;;;;4.50;4.10;;;;;;;;;;4984774;28;20040;-46
2023/05/31 03:25:29;;;;;;;4.53;4.05;;;;;;;;;;4984984;28;20113;-47
2023/05/31 03:27:57;;;;;;;4.60;4.00;;;;;;;;;;4982816;28;20034;-43
2023/05/31 03:30:22;;;;;;;4.13;3.80;;;;;;;;;;4981356;28;20030;-45
2023/05/31 03:32:48;;;;;;;4.50;4.00;;;;;;;;;;4984169;28;20522;-45
2023/05/31 03:35:13;;;;;;;6.10;3.83;;;;;;;;;;4983921;28;20034;-45
2023/05/31 03:37:38;;;;;;;5.07;4.60;;;;;;;;;;4985948;28;20062;-49
2023/05/31 03:40:04;;;;;;;4.90;3.95;;;;;;;;;;4980833;28;20113;-45
2023/05/31 03:42:31;;;;;;;4.78;4.13;;;;;;;;;;4983005;28;20043;-45
2023/05/31 03:44:57;;;;;;;4.93;4.30;;;;;;;;;;4986417;28;20038;-47
2023/05/31 03:47:22;;;;;;;4.55;4.00;;;;;;;;;;4984922;28;20045;-46
2023/05/31 03:49:47;;;;;;;6.35;4.35;;;;;;;;;;4984982;28;20022;-49
2023/05/31 03:52:13;;;;;;;5.10;4.13;;;;;;;;;;4984813;28;20066;-51
2023/05/31 03:54:39;;;;;;;4.57;4.13;;;;;;;;;;4986029;28;20479;-43
2023/05/31 03:57:05;;;;;;;4.32;3.92;;;;;;;;;;4980847;28;20043;-49
2023/05/31 03:59:30;;;;;;;5.18;3.97;;;;;;;;;;4983238;28;20042;-52
2023/05/31 04:01:56;;;;;;;8.18;4.07;;;;;;;;;;4986156;28;20041;-44
2023/05/31 04:04:21;;;;;;;4.30;3.90;;;;;;;;;;4984191;28;20030;-46
2023/05/31 04:06:47;;;;;;;5.40;4.07;;;;;;;;;;4981756;28;20395;-46
2023/05/31 04:09:12;;;;;;;4.30;3.83;;;;;;;;;;4985738;28;20158;-46
2023/05/31 04:11:38;;;;;;;4.70;3.75;;;;;;;;;;4985489;28;20523;-49
2023/05/31 04:14:03;;;;;;;6.75;4.10;;;;;;;;;;4980812;28;20039;-48
2023/05/31 04:16:28;;;;;;;5.10;3.75;;;;;;;;;;4980035;28;20055;-52
2023/05/31 04:18:54;;;;;;;4.22;3.83;;;;;;;;;;4984467;28;20034;-46
2023/05/31 04:21:20;;;;;;;5.07;4.20;;;;;;;;;;4983540;28;20116;-46
2023/05/31 04:23:45;;;;;;;9.55;3.92;;;;;;;;;;4983618;28;20057;-47
2023/05/31 04:26:16;;;;;;;5.68;4.30;;;;;;;;;;4982932;28;20145;-46
2023/05/31 04:28:42;;;;;;;5.40;3.80;;;;;;;;;;4984951;28;20057;-50
2023/05/31 04:31:07;;;;;;;5.80;4.07;;;;;;;;;;4980983;28;20042;-45
2023/05/31 04:33:33;;;;;;;7.53;4.25;;;;;;;;;;4982406;28;20034;-51
2023/05/31 04:35:58;;;;;;;3.90;3.53;;;;;;;;;;4982879;28;20038;-49
2023/05/31 04:38:27;;;;;;;4.32;3.88;;;;;;;;;;4981887;28;20030;-45
2023/05/31 04:40:54;;;;;;;5.75;3.80;;;;;;;;;;4981657;28;20092;-45
2023/05/31 04:43:19;;;;;;;6.57;3.95;;;;;;;;;;4982227;28;20030;-44
2023/05/31 04:45:45;;;;;;;4.10;3.70;;;;;;;;;;4983090;28;20050;-50
2023/05/31 04:48:11;;;;;;;5.70;4.25;;;;;;;;;;4983787;28;20034;-49
2023/05/31 04:50:37;;;;;;;4.07;3.67;;;;;;;;;;4984014;28;20031;-52
2023/05/31 04:53:03;;;;;;;5.15;3.70;;;;;;;;;;4986344;28;20036;-46
2023/05/31 04:55:28;;;;;;;4.95;3.92;;;;;;;;;;4982615;28;20022;-49
2023/05/31 04:57:54;;;;;;;5.57;4.20;;;;;;;;;;4981000;28;20065;-49
2023/05/31 05:00:19;;;;;;;6.05;3.72;;;;;;;;;;4981579;28;20061;-48
2023/05/31 05:02:45;;;;;;;4.57;3.92;;;;;;;;;;4982581;28;20113;-50
2023/05/31 05:05:11;;;;;;;5.53;3.83;;;;;;;;;;4976273;28;20679;-46
2023/05/31 05:07:37;;;;;;;4.35;3.83;;;;;;;;;;4978998;28;20045;-46
2023/05/31 05:10:02;;;;;;;7.80;3.92;;;;;;;;;;4982225;28;20027;-44
2023/05/31 05:12:29;;;;;;;6.40;3.58;;;;;;;;;;4981991;28;20064;-46
2023/05/31 05:14:54;;;;;;;5.07;3.70;;;;;;;;;;4980663;28;20038;-43
2023/05/31 05:17:20;;;;;;;4.30;3.90;;;;;;;;;;4979543;28;20589;-47
2023/05/31 05:19:45;;;;;;;5.72;3.83;;;;;;;;;;4974167;28;20534;-47
2023/05/31 05:22:11;;;;;;;4.97;4.07;;;;;;;;;;4978275;28;20050;-44
2023/05/31 05:24:36;;;;;;;3.95;3.60;;;;;;;;;;4979432;28;20683;-46
2023/05/31 05:27:02;;;;;;;6.28;3.65;;;;;;;;;;4978943;28;20122;-42
2023/05/31 05:29:27;;;;;;;3.65;3.35;;;;;;;;;;4980801;28;20044;-45
2023/05/31 05:31:53;;;;;;;5.65;3.70;;;;;;;;;;4976752;28;20045;-45
2023/05/31 05:34:20;;;;;;;4.00;3.70;;;;;;;;;;4979136;28;20052;-44
2023/05/31 05:36:45;;;;;;;7.75;3.58;;;;;;;;;;4982394;28;20038;-46
2023/05/31 05:39:11;;;;;;;5.88;3.58;;;;;;;;;;4978466;28;20052;-46
2023/05/31 05:41:36;;;;;;;4.55;4.15;;;;;;;;;;4977553;28;20130;-45
2023/05/31 05:44:02;;;;;;;4.57;3.50;;;;;;;;;;4977130;28;20383;-44
2023/05/31 05:46:28;;;;;;;3.92;3.60;;;;;;;;;;4977786;28;20073;-45
2023/05/31 05:48:53;;;;;;;5.47;4.00;;;;;;;;;;4972651;28;20413;-45
2023/05/31 05:51:19;;;;;;;7.65;4.55;;;;;;;;;;4970006;28;20043;-48
2023/05/31 05:53:44;;;;;;;11.45;3.95;;;;;;;;;;4975442;28;20031;-43
2023/05/31 05:56:11;;;;;;;4.15;3.63;;;;;;;;;;4978051;28;20129;-46
2023/05/31 05:58:37;;;;;;;4.13;3.72;;;;;;;;;;4981995;28;20030;-44
2023/05/31 06:01:02;;;;;;;7.95;3.40;;;;;;;;;;4982128;28;20076;-43
2023/05/31 06:03:30;;;;;;;5.88;4.05;;;;;;;;;;4985653;28;20035;-45
2023/05/31 06:05:55;;;;;;;5.72;3.60;;;;;;;;;;4984128;28;20034;-43
2023/05/31 06:08:21;;;;;;;6.95;3.80;;;;;;;;;;4983319;28;20507;-44
2023/05/31 06:10:46;;;;;;;3.97;3.65;;;;;;;;;;4985305;28;20043;-43
2023/05/31 06:13:12;;;;;;;5.88;4.07;;;;;;;;;;4981245;28;20026;-43
2023/05/31 06:15:37;;;;;;;3.78;3.30;;;;;;;;;;4981100;28;20045;-44
2023/05/31 06:18:03;;;;;;;4.65;3.70;;;;;;;;;;4982344;28;20077;-44
2023/05/31 06:20:29;;;;;;;5.45;3.67;;;;;;;;;;4985099;28;20472;-44
2023/05/31 06:22:54;;;;;;;5.55;3.45;;;;;;;;;;4982246;28;20053;-43
2023/05/31 06:25:20;;;;;;;3.90;3.47;;;;;;;;;;4986145;28;20039;-43
2023/05/31 06:27:46;;;;;;;6.10;3.35;;;;;;;;;;4980546;28;20047;-43
2023/05/31 06:30:12;;;;;;;4.22;3.33;;;;;;;;;;4989472;28;20026;-43
2023/05/31 06:32:38;;;;;;;3.75;3.38;;;;;;;;;;4986915;28;20045;-43
2023/05/31 06:35:04;;;;;;;5.88;3.30;;;;;;;;;;4986717;28;20026;-46
2023/05/31 06:37:31;;;;;;;6.07;3.28;;;;;;;;;;4977242;28;20089;-42
2023/05/31 06:39:57;;;;;;;10.10;3.55;;;;;;;;;;4985269;28;20065;-43
2023/05/31 06:42:22;;;;;;;4.60;3.13;;;;;;;;;;4983387;28;20438;-45
2023/05/31 06:44:48;;;;;;;9.23;3.47;;;;;;;;;;4986039;28;20471;-43
2023/05/31 06:47:14;;;;;;;3.55;3.22;;;;;;;;;;4987066;28;20452;-43
2023/05/31 06:49:39;;;;;;;6.68;3.55;;;;;;;;;;4986050;28;21042;-44
2023/05/31 06:52:05;;;;;;;5.00;3.30;;;;;;;;;;4985888;28;20034;-46
2023/05/31 06:54:35;;;;;;;7.05;3.50;;;;;;;;;;4987454;28;20023;-47
2023/05/31 06:57:01;;;;;;;4.18;3.78;;;;;;;;;;4978999;28;20050;-43
2023/05/31 06:59:27;;;;;;;3.42;3.22;;;;;;;;;;4983486;28;20588;-45
2023/05/31 07:01:53;;;;;;;5.75;3.67;;;;;;;;;;4983643;28;20042;-44
2023/05/31 07:04:19;;;;;;;6.75;3.85;;;;;;;;;;4986483;28;20037;-47
2023/05/31 07:06:45;;;;;;;3.80;3.45;;;;;;;;;;4984841;28;20042;-44
2023/05/31 07:09:10;;;;;;;5.85;3.72;;;;;;;;;;4980429;28;20521;-43
2023/05/31 07:11:39;;;;;;;3.67;3.38;;;;;;;;;;4981092;28;20046;-43
2023/05/31 07:14:04;;;;;;;4.65;3.85;;;;;;;;;;4979011;28;20034;-45
2023/05/31 07:16:30;;;;;;;5.10;3.65;;;;;;;;;;4979508;28;20069;-44
2023/05/31 07:18:56;;;;;;;6.10;3.70;;;;;;;;;;4984612;28;20562;-45
2023/05/31 07:21:23;;;;;;;3.45;3.15;;;;;;;;;;4985892;28;20160;-45
2023/05/31 07:23:49;;;;;;;4.68;3.65;;;;;;;;;;4986944;28;20396;-45
2023/05/31 07:26:15;;;;;;;5.68;3.90;;;;;;;;;;4984853;28;20035;-43
2023/05/31 07:28:44;;;;;;;6.32;3.83;;;;;;;;;;4985110;28;20027;-44
2023/05/31 07:31:10;;;;;;;6.78;4.20;;;;;;;;;;4985513;28;20042;-43
2023/05/31 07:33:35;;;;;;;5.40;4.18;;;;;;;;;;4984873;28;20034;-43
2023/05/31 07:36:01;;;;;;;9.63;3.83;;;;;;;;;;4986564;28;20042;-43
2023/05/31 07:38:26;;;;;;;7.47;3.90;;;;;;;;;;4986215;28;20034;-44
2023/05/31 07:40:52;;;;;;;4.28;3.88;;;;;;;;;;4987165;28;20038;-44
2023/05/31 07:43:21;;;;;;;4.40;3.92;;;;;;;;;;4984961;28;20022;-49
2023/05/31 07:45:50;;;;;;;4.75;4.18;;;;;;;;;;4985849;28;20133;-46
2023/05/31 07:48:19;;;;;;;7.63;3.75;;;;;;;;;;4986020;28;20072;-44
2023/05/31 07:50:45;;;;;;;6.25;4.10;;;;;;;;;;4984811;28;20093;-43
2023/05/31 07:53:11;;;;;;;5.30;4.15;;;;;;;;;;4984841;28;20038;-43
2023/05/31 07:55:37;;;;;;;8.50;4.03;;;;;;;;;;4983105;28;20030;-44
2023/05/31 07:58:03;;;;;;;7.88;4.15;;;;;;;;;;4983913;28;20084;-44
2023/05/31 08:00:28;;;;;;;7.10;4.03;;;;;;;;;;4985106;28;20027;-42
2023/05/31 08:02:54;;;;;;;4.70;4.28;;;;;;;;;;4985502;28;20439;-43
2023/05/31 08:05:20;;;;;;;5.05;3.95;;;;;;;;;;4984330;28;20058;-42
2023/05/31 08:07:46;;;;;;;5.25;3.85;;;;;;;;;;4983883;28;20046;-43
2023/05/31 08:10:12;;;;;;;4.88;3.67;;;;;;;;;;4983341;28;20027;-46
2023/05/31 08:12:37;;;;;;;7.45;3.90;;;;;;;;;;4981084;28;20038;-46
2023/05/31 08:15:03;;;;;;;6.53;4.43;;;;;;;;;;4986141;28;20066;-43
2023/05/31 08:17:29;;;;;;;5.55;4.03;;;;;;;;;;4980412;28;20146;-43
2023/05/31 08:19:55;;;;;;;3.95;3.63;;;;;;;;;;4985749;28;20037;-42
2023/05/31 08:22:20;;;;;;;5.70;3.83;;;;;;;;;;4983938;28;20097;-43
2023/05/31 08:24:46;;;;;;;6.90;4.43;;;;;;;;;;4982408;28;20023;-47
2023/05/31 08:27:11;;;;;;;4.85;4.07;;;;;;;;;;4984957;28;20043;-43
2023/05/31 08:29:36;;;;;;;9.32;4.07;;;;;;;;;;4984045;28;20026;-46
2023/05/31 08:32:02;;;;;;;6.97;4.13;;;;;;;;;;4983383;28;20518;-43
2023/05/31 08:34:27;;;;;;;6.35;3.88;;;;;;;;;;4986736;28;20052;-44
2023/05/31 08:36:53;;;;;;;4.57;3.38;;;;;;;;;;4984566;28;20042;-44
2023/05/31 08:39:18;;;;;;;4.80;4.30;;;;;;;;;;4985196;28;20019;-44
2023/05/31 08:41:58;;;;;;;5.55;3.70;;;;;;;;;;4981288;28;20042;-44
2023/05/31 08:44:23;;;;;;;5.30;3.70;;;;;;;;;;4982902;28;20034;-50
2023/05/31 08:46:49;;;;;;;5.95;4.18;;;;;;;;;;4983534;28;20500;-43
2023/05/31 08:49:18;;;;;;;4.57;3.70;;;;;;;;;;4985319;28;20097;-43
2023/05/31 08:51:48;;;;;;;6.07;3.67;;;;;;;;;;4984175;28;20551;-46
2023/05/31 08:54:13;;;;;;;4.97;4.05;;;;;;;;;;4978423;28;20034;-43
2023/05/31 08:56:39;;;;;;;7.05;4.53;;;;;;;;;;4981034;28;20042;-45
2023/05/31 08:59:09;;;;;;;7.97;4.45;;;;;;;;;;4981273;28;20057;-48
2023/05/31 09:01:36;;;;;;;5.25;3.22;;;;;;;;;;4982283;28;20046;-44
2023/05/31 09:04:04;;;;;;;5.03;3.63;;;;;;;;;;4985450;28;20045;-43
2023/05/31 09:06:30;;;;;;;5.60;3.58;;;;;;;;;;4984767;28;20040;-45
2023/05/31 09:08:55;;;;;;;4.28;3.58;;;;;;;;;;4987320;28;20038;-43
2023/05/31 09:11:23;;;;;;;4.25;3.65;;;;;;;;;;4983753;28;20377;-44
2023/05/31 09:13:48;;;;;;;6.25;3.70;;;;;;;;;;4983548;28;20026;-44
2023/05/31 09:16:13;;;;;;;3.70;3.35;;;;;;;;;;4982184;28;20483;-43
2023/05/31 09:18:39;;;;;;;4.00;3.60;;;;;;;;;;4983042;28;20041;-46
2023/05/31 09:21:13;;;;;;;4.72;3.85;;;;;;;;;;4983087;28;20231;-43
2023/05/31 09:23:52;;;;;;;5.68;3.47;;;;;;;;;;4982478;28;20609;-43
2023/05/31 09:26:18;;;;;;;3.90;3.50;;;;;;;;;;4981284;28;20141;-46
2023/05/31 09:28:48;;;;;;;10.38;4.07;;;;;;;;;;4984655;28;20116;-46
2023/05/31 09:31:15;;;;;;;5.22;3.28;;;;;;;;;;4982296;28;20034;-43
2023/05/31 09:33:42;;;;;;;4.05;3.47;;;;;;;;;;4982490;28;20530;-42
2023/05/31 09:36:08;;;;;;;5.80;3.80;;;;;;;;;;4985218;28;20046;-46
2023/05/31 09:38:35;;;;;;;4.40;3.47;;;;;;;;;;4980082;28;20035;-43
2023/05/31 09:41:20;;;;;;;7.32;3.42;;;;;;;;;;4984619;28;20102;-44
2023/05/31 09:43:49;;;;;;;3.78;3.38;;;;;;;;;;4983873;28;20566;-42
2023/05/31 09:46:20;;;;;;;3.38;3.08;;;;;;;;;;4983255;28;20053;-43
2023/05/31 09:48:59;;;;;;;4.68;3.20;;;;;;;;;;4979040;28;20031;-44
2023/05/31 09:51:25;;;;;;;5.22;3.22;;;;;;;;;;4981801;28;20058;-44
2023/05/31 09:53:55;;;;;;;3.35;3.15;;;;;;;;;;4985912;28;20582;-44
2023/05/31 09:56:22;;;;;;;5.95;3.22;;;;;;;;;;4986623;28;20050;-43
2023/05/31 09:58:49;;;;;;;4.10;3.10;;;;;;;;;;4986865;28;20524;-49
2023/05/31 10:01:18;;;;;;;5.15;3.65;;;;;;;;;;4987270;28;20193;-43
2023/05/31 10:03:44;;;;;;;4.38;3.28;;;;;;;;;;4994438;28;20780;-43
2023/05/31 10:06:11;;;;;;;8.20;3.55;;;;;;;;;;4985714;28;20035;-43
2023/05/31 10:08:37;;;;;;;3.88;2.85;;;;;;;;;;4983113;28;20057;-45
2023/05/31 10:11:03;;;;;;;3.50;3.20;;;;;;;;;;4988097;28;20112;-43
2023/05/31 10:13:30;;;;;;;5.43;3.38;;;;;;;;;;4982448;28;20080;-45
2023/05/31 10:16:14;;;;;;;3.90;3.22;;;;;;;;;;4984191;28;20048;-45
2023/05/31 10:18:45;;;;;;;4.47;3.05;;;;;;;;;;4977981;28;20039;-45
2023/05/31 10:21:25;;;;;;;3.75;2.67;;;;;;;;;;4983247;28;20590;-44
2023/05/31 10:24:06;;;;;;;3.22;2.92;;;;;;;;;;4984624;28;20034;-43
2023/05/31 10:26:51;;;;;;;3.87;2.87;;;;;;;;;;4985905;28;20542;-48
2023/05/31 10:29:23;;;;;;;5.65;3.28;;;;;;;;;;4983268;28;20545;-43
2023/05/31 10:31:50;;;;;;;2.78;2.58;;;;;;;;;;4984708;28;20396;-43
2023/05/31 10:34:22;;;;;;;2.85;2.63;;;;;;;;;;4987228;28;20029;-44
2023/05/31 10:36:49;;;;;;;3.80;3.30;;;;;;;;;;4983993;28;20034;-44
2023/05/31 10:39:39;;;;;;;5.35;2.95;;;;;;;;;;4983890;28;20026;-44
2023/05/31 10:42:19;;;;;;;3.10;2.80;;;;;;;;;;4986605;28;20089;-44
2023/05/31 10:45:01;;;;;;;4.05;3.17;;;;;;;;;;4986124;28;20468;-43
2023/05/31 10:47:36;;;;;;;4.80;3.00;;;;;;;;;;4981441;28;20038;-43
2023/05/31 10:50:03;;;;;;;3.35;3.03;;;;;;;;;;4983618;28;20030;-49
2023/05/31 10:52:30;;;;;;;4.45;3.03;;;;;;;;;;4984205;28;20046;-46
2023/05/31 10:55:23;;;;;;;3.75;3.33;;;;;;;;;;4984682;28;20040;-43
2023/05/31 10:57:56;;;;;;;5.40;3.13;;;;;;;;;;4985502;28;20065;-43
2023/05/31 11:00:25;;;;;;;3.65;3.00;;;;;;;;;;4986577;28;20482;-46
2023/05/31 11:02:53;;;;;;;5.00;3.20;;;;;;;;;;4987488;28;20052;-47
2023/05/31 11:05:27;;;;;;;4.80;3.25;;;;;;;;;;4985923;28;20084;-47
2023/05/31 11:07:54;;;;;;;3.35;3.13;;;;;;;;;;4983854;28;20050;-42
2023/05/31 11:10:29;;;;;;;3.10;2.85;;;;;;;;;;4980640;28;20030;-44
2023/05/31 11:13:03;;;;;;;4.38;3.17;;;;;;;;;;4979777;28;20058;-49
2023/05/31 11:15:43;;;;;;;3.13;2.83;;;;;;;;;;4983297;28;20039;-48
2023/05/31 11:18:10;;;;;;;5.53;3.38;;;;;;;;;;4984167;28;20037;-43
2023/05/31 11:20:36;;;;;;;3.47;3.17;;;;;;;;;;4985233;28;20494;-42
2023/05/31 11:23:20;;;;;;;3.45;3.15;;;;;;;;;;4986640;28;20022;-43
2023/05/31 11:26:17;;;;;;;2.90;2.70;;;;;;;;;;4982115;28;20042;-46
2023/05/31 11:28:58;;;;;;;3.42;3.13;;;;;;;;;;4983074;28;20117;-53
2023/05/31 11:31:51;;;;;;;7.65;3.53;;;;;;;;;;4986955;28;20038;-44
2023/05/31 11:34:34;;;;;;;3.50;3.20;;;;;;;;;;4986775;28;20110;-47
2023/05/31 11:37:02;;;;;;;10.07;3.05;;;;;;;;;;4982596;28;20487;-43
2023/05/31 11:39:28;;;;;;;4.18;3.13;;;;;;;;;;4987013;28;21477;-44
2023/05/31 11:41:54;;;;;;;3.30;3.00;;;;;;;;;;4981746;28;20057;-44
2023/05/31 11:44:26;;;;;;;3.95;3.55;;;;;;;;;;4982578;28;20029;-45
2023/05/31 11:46:58;;;;;;;3.72;3.15;;;;;;;;;;4985627;28;20042;-45
2023/05/31 11:49:23;;;;;;;;;;;;;;;;;;4983565;28;20120;-43
2023/05/31 11:51:49;;;;;;;4.28;3.13;;;;;;;;;;4985158;28;19925;-43
2023/05/31 11:54:15;;;;;;;3.65;3.35;;;;;;;;;;4986107;28;20027;-43
2023/05/31 11:56:41;;;;;;;5.30;3.45;;;;;;;;;;4984341;28;20089;-47
2023/05/31 11:59:07;;;;;;;3.42;3.10;;;;;;;;;;4984274;28;20030;-44
2023/05/31 12:01:38;;;;;;;3.58;3.28;;;;;;;;;;4987201;28;20034;-47
2023/05/31 12:04:03;;;;;;;5.55;3.45;;;;;;;;;;4981740;28;20081;-45
2023/05/31 12:06:29;;;;;;;3.55;3.25;;;;;;;;;;4987354;28;20503;-43
2023/05/31 12:08:55;;;;;;;10.52;3.60;;;;;;;;;;4982321;28;20030;-43
2023/05/31 12:11:21;;;;;;;4.85;3.50;;;;;;;;;;4983829;28;20134;-43
2023/05/31 12:13:47;;;;;;;3.88;2.88;;;;;;;;;;4982142;28;20109;-48
2023/05/31 12:16:13;;;;;;;3.78;3.22;;;;;;;;;;4982946;28;20042;-43
2023/05/31 12:18:38;;;;;;;3.42;3.13;;;;;;;;;;4985983;28;20026;-43
2023/05/31 12:21:08;;;;;;;3.83;3.25;;;;;;;;;;4986430;28;20122;-43
2023/05/31 12:23:51;;;;;;;4.82;3.13;;;;;;;;;;4986052;28;20034;-44
2023/05/31 12:26:17;;;;;;;12.43;3.25;;;;;;;;;;4983185;28;20045;-43
2023/05/31 12:28:42;;;;;;;5.38;3.40;;;;;;;;;;4985060;28;20046;-49
2023/05/31 12:31:08;;;;;;;17.40;3.60;;;;;;;;;;4983757;28;20039;-42
2023/05/31 12:33:36;;;;;;;4.97;3.70;;;;;;;;;;4986624;28;20436;-46
2023/05/31 12:36:03;;;;;;;3.95;2.95;;;;;;;;;;4983018;28;20034;-43
2023/05/31 12:38:29;;;;;;;3.80;3.40;;;;;;;;;;4986018;28;20042;-43
2023/05/31 12:40:54;;;;;;;3.70;3.30;;;;;;;;;;4981715;28;20457;-49
2023/05/31 12:43:20;;;;;;;3.75;3.22;;;;;;;;;;4982921;28;20050;-49
2023/05/31 12:45:45;;;;;;;4.68;3.05;;;;;;;;;;4982568;28;20050;-46
2023/05/31 12:48:11;;;;;;;3.47;3.17;;;;;;;;;;4981989;28;20045;-46
2023/05/31 12:50:43;;;;;;;3.42;3.13;;;;;;;;;;4980577;28;20037;-43
2023/05/31 12:53:08;;;;;;;4.32;3.47;;;;;;;;;;4985853;28;20030;-46
2023/05/31 12:55:34;;;;;;;4.07;3.25;;;;;;;;;;4982490;28;20031;-51
2023/05/31 12:57:59;;;;;;;6.32;3.10;;;;;;;;;;4980460;28;20113;-43
2023/05/31 13:00:25;;;;;;;5.03;3.63;;;;;;;;;;4985069;28;20435;-45
2023/05/31 13:02:51;;;;;;;4.38;3.50;;;;;;;;;;4983716;28;20076;-46
2023/05/31 13:05:17;;;;;;;3.53;3.22;;;;;;;;;;4986212;28;20049;-44
2023/05/31 13:07:42;;;;;;;3.47;3.17;;;;;;;;;;4984276;28;20031;-48
2023/05/31 13:10:08;;;;;;;7.20;3.25;;;;;;;;;;4982361;28;20037;-45
2023/05/31 13:12:34;;;;;;;4.78;3.55;;;;;;;;;;4981157;28;20133;-43
2023/05/31 13:15:00;;;;;;;7.38;3.25;;;;;;;;;;4982771;28;20034;-44
2023/05/31 13:17:25;;;;;;;5.70;3.17;;;;;;;;;;4984769;28;20058;-46
2023/05/31 13:19:51;;;;;;;3.72;3.33;;;;;;;;;;4985270;28;20038;-43
2023/05/31 13:22:16;;;;;;;4.43;3.45;;;;;;;;;;4980581;28;20042;-43
2023/05/31 13:24:41;;;;;;;6.03;3.40;;;;;;;;;;4983986;28;20061;-46
2023/05/31 13:27:07;;;;;;;3.65;3.35;;;;;;;;;;4982856;28;20042;-49
2023/05/31 13:29:33;;;;;;;3.88;3.53;;;;;;;;;;4984292;28;20031;-44
2023/05/31 13:31:58;;;;;;;4.03;3.47;;;;;;;;;;4983294;28;20038;-43
2023/05/31 13:34:24;;;;;;;3.70;3.40;;;;;;;;;;4985126;28;20391;-48
2023/05/31 13:36:49;;;;;;;3.97;3.58;;;;;;;;;;4983820;28;20404;-49
2023/05/31 13:39:15;;;;;;;3.80;3.50;;;;;;;;;;4982990;28;20030;-46
2023/05/31 13:41:44;;;;;;;5.20;3.45;;;;;;;;;;4983941;28;20043;-49
2023/05/31 13:44:12;;;;;;;10.43;3.55;;;;;;;;;;4981675;28;20033;-43
2023/05/31 13:46:38;;;;;;;5.25;3.50;;;;;;;;;;4981924;28;20042;-49
2023/05/31 13:49:03;;;;;;;3.85;3.45;;;;;;;;;;4983134;28;20031;-49
2023/05/31 13:51:29;;;;;;;4.32;3.60;;;;;;;;;;4983244;28;20042;-43
2023/05/31 13:53:54;;;;;;;3.83;3.42;;;;;;;;;;4983600;28;20042;-45
2023/05/31 13:56:20;;;;;;;5.05;3.60;;;;;;;;;;4981792;28;20050;-47
2023/05/31 13:58:45;;;;;;;3.75;3.45;;;;;;;;;;4984868;28;20827;-46
2023/05/31 14:01:11;;;;;;;3.67;3.40;;;;;;;;;;4981408;28;20404;-44
2023/05/31 14:03:39;;;;;;;4.90;3.60;;;;;;;;;;4984140;28;20676;-45
2023/05/31 14:06:06;;;;;;;4.25;3.72;;;;;;;;;;4979610;28;20595;-49
2023/05/31 14:08:31;;;;;;;4.55;3.40;;;;;;;;;;4980747;28;20034;-50
2023/05/31 14:10:57;;;;;;;4.55;3.67;;;;;;;;;;4980247;28;20049;-49
2023/05/31 14:13:23;;;;;;;4.55;4.07;;;;;;;;;;4983239;28;20046;-48
2023/05/31 14:15:48;;;;;;;3.80;3.40;;;;;;;;;;4981243;28;20039;-50
2023/05/31 14:18:14;;;;;;;6.47;4.00;;;;;;;;;;4980053;28;20050;-52
2023/05/31 14:20:40;;;;;;;4.53;3.60;;;;;;;;;;4982712;28;20030;-51
2023/05/31 14:23:06;;;;;;;4.63;4.15;;;;;;;;;;4982145;28;20081;-47
2023/05/31 14:25:31;;;;;;;4.18;3.80;;;;;;;;;;4981795;28;20103;-51
2023/05/31 14:27:57;;;;;;;10.68;4.20;;;;;;;;;;4981001;28;20028;-44
2023/05/31 14:30:25;;;;;;;7.95;3.80;;;;;;;;;;4980423;28;20121;-46
2023/05/31 14:32:50;;;;;;;6.70;3.85;;;;;;;;;;4981818;28;20027;-45
2023/05/31 14:35:17;;;;;;;10.20;3.92;;;;;;;;;;4979729;28;20520;-52
2023/05/31 14:37:42;;;;;;;7.90;4.40;;;;;;;;;;4981998;28;20373;-48
2023/05/31 14:40:08;;;;;;;5.93;3.80;;;;;;;;;;4982681;28;20077;-48
2023/05/31 14:42:33;;;;;;;10.60;3.97;;;;;;;;;;4985613;28;20061;-51